sensor_id;sensor_type;location;lat;lon;timestamp;P1;durP1;ratioP1;P2;durP2;ratioP2
31130;SDS011;20292;50.944;4.034;2022-11-30T00:01:54;18.83;;;12.63;;
31130;SDS011;20292;50.944;4.034;2022-11-30T00:04:20;17.75;;;11.88;;
31130;SDS011;20292;50.944;4.034;2022-11-30T00:06:45;17.83;;;11.82;;
31130;SDS011;20292;50.944;4.034;2022-11-30T00:09:11;17.88;;;12.00;;
31130;SDS011;20292;50.944;4.034;2022-11-30T00:11:37;19.33;;;12.60;;
31130;SDS011;20292;50.944;4.034;2022-11-30T00:14:02;16.25;;;11.65;;
31130;SDS011;20292;50.944;4.034;2022-11-30T00:16:28;17.73;;;12.25;;
31130;SDS011;20292;50.944;4.034;2022-11-30T00:18:54;18.13;;;12.68;;
31130;SDS011;20292;50.944;4.034;2022-11-30T00:21:19;18.15;;;12.60;;
31130;SDS011;20292;50.944;4.034;2022-11-30T00:23:45;20.17;;;12.65;;
31130;SDS011;20292;50.944;4.034;2022-11-30T00:26:15;19.13;;;12.15;;
31130;SDS011;20292;50.944;4.034;2022-11-30T00:28:42;19.90;;;12.57;;
31130;SDS011;20292;50.944;4.034;2022-11-30T00:31:10;18.42;;;12.18;;
31130;SDS011;20292;50.944;4.034;2022-11-30T00:33:37;18.92;;;12.45;;
31130;SDS011;20292;50.944;4.034;2022-11-30T00:36:07;19.65;;;12.60;;
31130;SDS011;20292;50.944;4.034;2022-11-30T00:38:35;18.65;;;12.38;;
31130;SDS011;20292;50.944;4.034;2022-11-30T00:41:01;19.15;;;11.48;;
31130;SDS011;20292;50.944;4.034;2022-11-30T00:43:28;15.52;;;11.00;;
31130;SDS011;20292;50.944;4.034;2022-11-30T00:45:53;16.15;;;11.23;;
31130;SDS011;20292;50.944;4.034;2022-11-30T00:48:19;16.08;;;11.27;;
31130;SDS011;20292;50.944;4.034;2022-11-30T00:50:45;17.27;;;11.23;;
31130;SDS011;20292;50.944;4.034;2022-11-30T00:53:12;16.13;;;10.90;;
31130;SDS011;20292;50.944;4.034;2022-11-30T00:55:38;15.30;;;10.95;;
31130;SDS011;20292;50.944;4.034;2022-11-30T00:58:03;17.13;;;11.07;;
31130;SDS011;20292;50.944;4.034;2022-11-30T01:00:31;16.63;;;11.27;;
31130;SDS011;20292;50.944;4.034;2022-11-30T01:02:57;17.38;;;11.30;;
31130;SDS011;20292;50.944;4.034;2022-11-30T01:05:26;17.30;;;11.13;;
31130;SDS011;20292;50.944;4.034;2022-11-30T01:07:53;19.00;;;11.35;;
31130;SDS011;20292;50.944;4.034;2022-11-30T01:10:18;18.67;;;12.02;;
31130;SDS011;20292;50.944;4.034;2022-11-30T01:12:44;16.75;;;11.07;;
31130;SDS011;20292;50.944;4.034;2022-11-30T01:15:10;15.82;;;11.02;;
31130;SDS011;20292;50.944;4.034;2022-11-30T01:17:35;15.30;;;10.82;;
31130;SDS011;20292;50.944;4.034;2022-11-30T01:20:02;16.60;;;10.77;;
31130;SDS011;20292;50.944;4.034;2022-11-30T01:22:29;18.05;;;11.23;;
31130;SDS011;20292;50.944;4.034;2022-11-30T01:24:54;17.48;;;11.43;;
31130;SDS011;20292;50.944;4.034;2022-11-30T01:27:20;15.65;;;10.68;;
31130;SDS011;20292;50.944;4.034;2022-11-30T01:29:45;18.30;;;11.02;;
31130;SDS011;20292;50.944;4.034;2022-11-30T01:32:11;20.83;;;11.57;;
31130;SDS011;20292;50.944;4.034;2022-11-30T01:34:37;16.25;;;11.38;;
31130;SDS011;20292;50.944;4.034;2022-11-30T01:37:02;18.60;;;11.40;;
31130;SDS011;20292;50.944;4.034;2022-11-30T01:39:28;16.70;;;11.18;;
31130;SDS011;20292;50.944;4.034;2022-11-30T01:41:53;16.30;;;11.00;;
31130;SDS011;20292;50.944;4.034;2022-11-30T01:49:29;19.70;;;12.73;;
31130;SDS011;20292;50.944;4.034;2022-11-30T01:54:31;21.17;;;13.75;;
31130;SDS011;20292;50.944;4.034;2022-11-30T01:57:02;20.02;;;12.45;;
31130;SDS011;20292;50.944;4.034;2022-11-30T01:59:35;19.33;;;12.20;;
31130;SDS011;20292;50.944;4.034;2022-11-30T02:02:01;21.40;;;13.15;;
31130;SDS011;20292;50.944;4.034;2022-11-30T02:04:27;22.08;;;13.70;;
31130;SDS011;20292;50.944;4.034;2022-11-30T02:06:58;22.15;;;13.52;;
31130;SDS011;20292;50.944;4.034;2022-11-30T02:09:25;21.92;;;13.52;;
31130;SDS011;20292;50.944;4.034;2022-11-30T02:11:52;22.05;;;13.82;;
31130;SDS011;20292;50.944;4.034;2022-11-30T02:17:06;21.40;;;13.35;;
31130;SDS011;20292;50.944;4.034;2022-11-30T02:20:37;21.80;;;14.05;;
31130;SDS011;20292;50.944;4.034;2022-11-30T02:25:35;25.55;;;14.82;;
31130;SDS011;20292;50.944;4.034;2022-11-30T02:28:30;21.65;;;13.43;;
31130;SDS011;20292;50.944;4.034;2022-11-30T02:31:03;24.02;;;14.38;;
31130;SDS011;20292;50.944;4.034;2022-11-30T02:33:32;22.75;;;14.20;;
31130;SDS011;20292;50.944;4.034;2022-11-30T02:35:59;22.92;;;13.82;;
31130;SDS011;20292;50.944;4.034;2022-11-30T02:38:27;24.33;;;14.45;;
31130;SDS011;20292;50.944;4.034;2022-11-30T02:40:53;26.45;;;14.68;;
31130;SDS011;20292;50.944;4.034;2022-11-30T02:43:20;22.58;;;14.20;;
31130;SDS011;20292;50.944;4.034;2022-11-30T02:48:48;27.92;;;15.50;;
31130;SDS011;20292;50.944;4.034;2022-11-30T02:51:24;27.30;;;16.10;;
31130;SDS011;20292;50.944;4.034;2022-11-30T02:53:51;25.25;;;15.30;;
31130;SDS011;20292;50.944;4.034;2022-11-30T02:56:18;26.40;;;16.00;;
31130;SDS011;20292;50.944;4.034;2022-11-30T02:58:44;24.73;;;15.10;;
31130;SDS011;20292;50.944;4.034;2022-11-30T03:01:10;27.80;;;15.65;;
31130;SDS011;20292;50.944;4.034;2022-11-30T03:03:36;26.98;;;16.20;;
31130;SDS011;20292;50.944;4.034;2022-11-30T03:06:01;27.73;;;16.38;;
31130;SDS011;20292;50.944;4.034;2022-11-30T03:08:27;27.13;;;15.93;;
31130;SDS011;20292;50.944;4.034;2022-11-30T03:10:53;25.25;;;15.68;;
31130;SDS011;20292;50.944;4.034;2022-11-30T03:13:18;26.00;;;14.77;;
31130;SDS011;20292;50.944;4.034;2022-11-30T03:15:44;26.92;;;14.85;;
31130;SDS011;20292;50.944;4.034;2022-11-30T03:18:09;25.83;;;14.80;;
31130;SDS011;20292;50.944;4.034;2022-11-30T03:20:38;28.45;;;16.52;;
31130;SDS011;20292;50.944;4.034;2022-11-30T03:23:05;26.27;;;15.40;;
31130;SDS011;20292;50.944;4.034;2022-11-30T03:25:31;29.55;;;15.85;;
31130;SDS011;20292;50.944;4.034;2022-11-30T03:27:57;29.63;;;15.77;;
31130;SDS011;20292;50.944;4.034;2022-11-30T03:30:24;29.60;;;16.30;;
31130;SDS011;20292;50.944;4.034;2022-11-30T03:32:50;26.73;;;16.00;;
31130;SDS011;20292;50.944;4.034;2022-11-30T03:35:16;25.35;;;14.75;;
31130;SDS011;20292;50.944;4.034;2022-11-30T03:37:42;26.10;;;14.80;;
31130;SDS011;20292;50.944;4.034;2022-11-30T03:40:08;27.50;;;15.52;;
31130;SDS011;20292;50.944;4.034;2022-11-30T03:42:35;28.45;;;15.57;;
31130;SDS011;20292;50.944;4.034;2022-11-30T03:45:01;28.65;;;15.93;;
31130;SDS011;20292;50.944;4.034;2022-11-30T03:47:27;27.55;;;16.27;;
31130;SDS011;20292;50.944;4.034;2022-11-30T03:49:52;29.42;;;16.50;;
31130;SDS011;20292;50.944;4.034;2022-11-30T03:52:18;27.33;;;16.42;;
31130;SDS011;20292;50.944;4.034;2022-11-30T03:54:43;26.15;;;16.35;;
31130;SDS011;20292;50.944;4.034;2022-11-30T03:57:09;28.42;;;15.88;;
31130;SDS011;20292;50.944;4.034;2022-11-30T03:59:34;29.90;;;16.52;;
31130;SDS011;20292;50.944;4.034;2022-11-30T04:02:00;29.27;;;16.25;;
31130;SDS011;20292;50.944;4.034;2022-11-30T04:04:25;26.40;;;15.20;;
31130;SDS011;20292;50.944;4.034;2022-11-30T04:06:51;29.55;;;16.23;;
31130;SDS011;20292;50.944;4.034;2022-11-30T04:09:17;27.88;;;15.82;;
31130;SDS011;20292;50.944;4.034;2022-11-30T04:11:42;30.33;;;16.13;;
31130;SDS011;20292;50.944;4.034;2022-11-30T04:14:08;31.13;;;16.75;;
31130;SDS011;20292;50.944;4.034;2022-11-30T04:16:34;29.25;;;16.00;;
31130;SDS011;20292;50.944;4.034;2022-11-30T04:19:00;32.33;;;16.52;;
31130;SDS011;20292;50.944;4.034;2022-11-30T04:21:26;28.35;;;15.27;;
31130;SDS011;20292;50.944;4.034;2022-11-30T04:23:51;27.58;;;16.15;;
31130;SDS011;20292;50.944;4.034;2022-11-30T04:26:17;27.92;;;15.60;;
31130;SDS011;20292;50.944;4.034;2022-11-30T04:28:43;27.35;;;15.15;;
31130;SDS011;20292;50.944;4.034;2022-11-30T04:31:08;35.03;;;16.50;;
31130;SDS011;20292;50.944;4.034;2022-11-30T04:33:34;30.55;;;17.10;;
31130;SDS011;20292;50.944;4.034;2022-11-30T04:36:01;33.33;;;15.90;;
31130;SDS011;20292;50.944;4.034;2022-11-30T04:38:29;28.48;;;15.75;;
31130;SDS011;20292;50.944;4.034;2022-11-30T04:40:55;32.28;;;16.80;;
31130;SDS011;20292;50.944;4.034;2022-11-30T04:43:21;30.75;;;15.32;;
31130;SDS011;20292;50.944;4.034;2022-11-30T04:45:47;28.20;;;14.90;;
31130;SDS011;20292;50.944;4.034;2022-11-30T04:48:14;29.98;;;16.48;;
31130;SDS011;20292;50.944;4.034;2022-11-30T04:50:40;32.20;;;15.85;;
31130;SDS011;20292;50.944;4.034;2022-11-30T04:53:06;34.85;;;17.42;;
31130;SDS011;20292;50.944;4.034;2022-11-30T04:55:31;29.45;;;16.55;;
31130;SDS011;20292;50.944;4.034;2022-11-30T04:57:57;31.23;;;16.30;;
31130;SDS011;20292;50.944;4.034;2022-11-30T05:00:23;31.42;;;16.77;;
31130;SDS011;20292;50.944;4.034;2022-11-30T05:02:49;28.23;;;15.77;;
31130;SDS011;20292;50.944;4.034;2022-11-30T05:05:14;32.25;;;16.80;;
31130;SDS011;20292;50.944;4.034;2022-11-30T05:07:40;31.15;;;16.10;;
31130;SDS011;20292;50.944;4.034;2022-11-30T05:10:06;30.77;;;16.58;;
31130;SDS011;20292;50.944;4.034;2022-11-30T05:12:32;31.23;;;16.80;;
31130;SDS011;20292;50.944;4.034;2022-11-30T05:14:58;36.28;;;16.95;;
31130;SDS011;20292;50.944;4.034;2022-11-30T05:17:23;37.00;;;16.48;;
31130;SDS011;20292;50.944;4.034;2022-11-30T05:19:49;34.20;;;16.63;;
31130;SDS011;20292;50.944;4.034;2022-11-30T05:22:15;31.30;;;16.13;;
31130;SDS011;20292;50.944;4.034;2022-11-30T05:24:41;31.45;;;15.95;;
31130;SDS011;20292;50.944;4.034;2022-11-30T05:27:06;34.50;;;17.13;;
31130;SDS011;20292;50.944;4.034;2022-11-30T05:29:32;31.67;;;16.17;;
31130;SDS011;20292;50.944;4.034;2022-11-30T05:31:59;38.83;;;17.38;;
31130;SDS011;20292;50.944;4.034;2022-11-30T05:34:25;44.72;;;18.38;;
31130;SDS011;20292;50.944;4.034;2022-11-30T05:36:51;43.75;;;18.02;;
31130;SDS011;20292;50.944;4.034;2022-11-30T05:39:17;40.80;;;17.60;;
31130;SDS011;20292;50.944;4.034;2022-11-30T05:41:42;51.92;;;21.40;;
31130;SDS011;20292;50.944;4.034;2022-11-30T05:44:08;60.28;;;20.02;;
31130;SDS011;20292;50.944;4.034;2022-11-30T05:46:34;52.85;;;19.20;;
31130;SDS011;20292;50.944;4.034;2022-11-30T05:49:00;48.78;;;19.70;;
31130;SDS011;20292;50.944;4.034;2022-11-30T05:51:26;49.95;;;19.95;;
31130;SDS011;20292;50.944;4.034;2022-11-30T05:53:51;59.08;;;21.30;;
31130;SDS011;20292;50.944;4.034;2022-11-30T05:56:17;67.72;;;20.00;;
31130;SDS011;20292;50.944;4.034;2022-11-30T05:58:44;71.97;;;19.45;;
31130;SDS011;20292;50.944;4.034;2022-11-30T06:01:20;74.03;;;18.63;;
31130;SDS011;20292;50.944;4.034;2022-11-30T06:03:48;63.47;;;17.08;;
31130;SDS011;20292;50.944;4.034;2022-11-30T06:06:14;64.40;;;18.35;;
31130;SDS011;20292;50.944;4.034;2022-11-30T06:08:40;67.15;;;20.13;;
31130;SDS011;20292;50.944;4.034;2022-11-30T06:11:05;70.45;;;19.60;;
31130;SDS011;20292;50.944;4.034;2022-11-30T06:13:31;71.25;;;21.98;;
31130;SDS011;20292;50.944;4.034;2022-11-30T06:15:58;69.45;;;23.77;;
31130;SDS011;20292;50.944;4.034;2022-11-30T06:18:24;75.82;;;22.88;;
31130;SDS011;20292;50.944;4.034;2022-11-30T06:20:50;58.47;;;20.27;;
31130;SDS011;20292;50.944;4.034;2022-11-30T06:23:15;69.25;;;21.90;;
31130;SDS011;20292;50.944;4.034;2022-11-30T06:25:41;73.22;;;22.98;;
31130;SDS011;20292;50.944;4.034;2022-11-30T06:28:07;83.10;;;24.27;;
31130;SDS011;20292;50.944;4.034;2022-11-30T06:30:34;67.28;;;21.60;;
31130;SDS011;20292;50.944;4.034;2022-11-30T06:32:59;59.80;;;20.88;;
31130;SDS011;20292;50.944;4.034;2022-11-30T06:35:25;70.43;;;21.52;;
31130;SDS011;20292;50.944;4.034;2022-11-30T06:37:50;67.55;;;23.45;;
31130;SDS011;20292;50.944;4.034;2022-11-30T06:40:16;70.53;;;23.15;;
31130;SDS011;20292;50.944;4.034;2022-11-30T06:42:42;72.72;;;23.92;;
31130;SDS011;20292;50.944;4.034;2022-11-30T06:45:07;62.53;;;23.10;;
31130;SDS011;20292;50.944;4.034;2022-11-30T06:47:33;73.72;;;24.25;;
31130;SDS011;20292;50.944;4.034;2022-11-30T06:49:59;65.78;;;22.58;;
31130;SDS011;20292;50.944;4.034;2022-11-30T06:52:24;74.93;;;24.27;;
31130;SDS011;20292;50.944;4.034;2022-11-30T06:54:50;76.97;;;23.35;;
31130;SDS011;20292;50.944;4.034;2022-11-30T06:57:16;76.82;;;24.52;;
31130;SDS011;20292;50.944;4.034;2022-11-30T06:59:41;72.93;;;23.98;;
31130;SDS011;20292;50.944;4.034;2022-11-30T07:02:11;70.65;;;23.15;;
31130;SDS011;20292;50.944;4.034;2022-11-30T07:04:38;80.28;;;26.08;;
31130;SDS011;20292;50.944;4.034;2022-11-30T07:07:04;73.85;;;24.55;;
31130;SDS011;20292;50.944;4.034;2022-11-30T07:09:31;81.28;;;25.75;;
31130;SDS011;20292;50.944;4.034;2022-11-30T07:11:57;128.85;;;23.92;;
31130;SDS011;20292;50.944;4.034;2022-11-30T07:14:23;113.15;;;25.08;;
31130;SDS011;20292;50.944;4.034;2022-11-30T07:16:49;129.10;;;25.33;;
31130;SDS011;20292;50.944;4.034;2022-11-30T07:19:15;91.93;;;27.50;;
31130;SDS011;20292;50.944;4.034;2022-11-30T07:21:40;88.57;;;28.27;;
31130;SDS011;20292;50.944;4.034;2022-11-30T07:24:06;96.63;;;28.05;;
31130;SDS011;20292;50.944;4.034;2022-11-30T07:26:51;83.07;;;28.85;;
31130;SDS011;20292;50.944;4.034;2022-11-30T07:29:17;80.10;;;26.10;;
31130;SDS011;20292;50.944;4.034;2022-11-30T07:31:48;83.07;;;27.33;;
31130;SDS011;20292;50.944;4.034;2022-11-30T07:34:15;78.55;;;26.85;;
31130;SDS011;20292;50.944;4.034;2022-11-30T07:36:41;106.88;;;27.05;;
31130;SDS011;20292;50.944;4.034;2022-11-30T07:39:06;85.32;;;26.27;;
31130;SDS011;20292;50.944;4.034;2022-11-30T07:41:32;90.95;;;28.42;;
31130;SDS011;20292;50.944;4.034;2022-11-30T07:43:58;101.43;;;27.70;;
31130;SDS011;20292;50.944;4.034;2022-11-30T07:46:23;99.80;;;29.08;;
31130;SDS011;20292;50.944;4.034;2022-11-30T07:48:49;120.70;;;27.55;;
31130;SDS011;20292;50.944;4.034;2022-11-30T07:51:16;86.85;;;30.40;;
31130;SDS011;20292;50.944;4.034;2022-11-30T07:53:43;126.47;;;28.35;;
31130;SDS011;20292;50.944;4.034;2022-11-30T07:56:13;121.18;;;28.15;;
31130;SDS011;20292;50.944;4.034;2022-11-30T07:58:40;102.75;;;29.80;;
31130;SDS011;20292;50.944;4.034;2022-11-30T08:01:08;89.80;;;30.75;;
31130;SDS011;20292;50.944;4.034;2022-11-30T08:03:36;105.15;;;31.33;;
31130;SDS011;20292;50.944;4.034;2022-11-30T08:06:12;98.03;;;32.13;;
31130;SDS011;20292;50.944;4.034;2022-11-30T08:08:41;87.55;;;30.73;;
31130;SDS011;20292;50.944;4.034;2022-11-30T08:11:08;94.47;;;29.90;;
31130;SDS011;20292;50.944;4.034;2022-11-30T08:13:36;96.47;;;30.20;;
31130;SDS011;20292;50.944;4.034;2022-11-30T08:16:02;84.53;;;28.23;;
31130;SDS011;20292;50.944;4.034;2022-11-30T08:18:30;83.57;;;29.35;;
31130;SDS011;20292;50.944;4.034;2022-11-30T08:20:59;99.70;;;29.95;;
31130;SDS011;20292;50.944;4.034;2022-11-30T08:23:31;105.63;;;27.63;;
31130;SDS011;20292;50.944;4.034;2022-11-30T08:26:11;86.82;;;27.15;;
31130;SDS011;20292;50.944;4.034;2022-11-30T08:28:48;104.05;;;27.80;;
31130;SDS011;20292;50.944;4.034;2022-11-30T08:31:16;89.03;;;28.15;;
31130;SDS011;20292;50.944;4.034;2022-11-30T08:33:46;86.53;;;28.08;;
31130;SDS011;20292;50.944;4.034;2022-11-30T08:36:13;105.63;;;26.95;;
31130;SDS011;20292;50.944;4.034;2022-11-30T08:38:41;83.68;;;27.77;;
31130;SDS011;20292;50.944;4.034;2022-11-30T08:41:08;87.50;;;25.92;;
31130;SDS011;20292;50.944;4.034;2022-11-30T08:43:34;81.22;;;27.67;;
31130;SDS011;20292;50.944;4.034;2022-11-30T08:46:00;83.68;;;27.98;;
31130;SDS011;20292;50.944;4.034;2022-11-30T08:48:27;88.40;;;25.85;;
31130;SDS011;20292;50.944;4.034;2022-11-30T08:50:53;85.40;;;24.15;;
31130;SDS011;20292;50.944;4.034;2022-11-30T08:53:19;104.75;;;26.17;;
31130;SDS011;20292;50.944;4.034;2022-11-30T08:55:53;71.78;;;25.90;;
31130;SDS011;20292;50.944;4.034;2022-11-30T08:58:24;84.40;;;26.00;;
31130;SDS011;20292;50.944;4.034;2022-11-30T09:00:50;77.90;;;25.73;;
31130;SDS011;20292;50.944;4.034;2022-11-30T09:03:16;81.15;;;27.35;;
31130;SDS011;20292;50.944;4.034;2022-11-30T09:05:42;90.78;;;25.23;;
31130;SDS011;20292;50.944;4.034;2022-11-30T09:08:07;87.32;;;27.20;;
31130;SDS011;20292;50.944;4.034;2022-11-30T09:10:33;77.60;;;26.05;;
31130;SDS011;20292;50.944;4.034;2022-11-30T09:12:58;76.95;;;25.80;;
31130;SDS011;20292;50.944;4.034;2022-11-30T09:15:24;74.60;;;25.40;;
31130;SDS011;20292;50.944;4.034;2022-11-30T09:17:49;72.63;;;25.80;;
31130;SDS011;20292;50.944;4.034;2022-11-30T09:20:15;70.38;;;26.05;;
31130;SDS011;20292;50.944;4.034;2022-11-30T09:22:41;65.07;;;25.15;;
31130;SDS011;20292;50.944;4.034;2022-11-30T09:25:07;68.97;;;24.98;;
31130;SDS011;20292;50.944;4.034;2022-11-30T09:27:33;76.82;;;27.17;;
31130;SDS011;20292;50.944;4.034;2022-11-30T09:29:59;74.93;;;25.73;;
31130;SDS011;20292;50.944;4.034;2022-11-30T09:32:25;86.28;;;28.98;;
31130;SDS011;20292;50.944;4.034;2022-11-30T09:34:52;80.47;;;28.05;;
31130;SDS011;20292;50.944;4.034;2022-11-30T09:37:17;83.60;;;27.55;;
31130;SDS011;20292;50.944;4.034;2022-11-30T09:39:43;73.97;;;26.38;;
31130;SDS011;20292;50.944;4.034;2022-11-30T09:42:31;67.20;;;27.08;;
31130;SDS011;20292;50.944;4.034;2022-11-30T09:45:30;68.88;;;27.20;;
31130;SDS011;20292;50.944;4.034;2022-11-30T09:50:44;73.32;;;27.25;;
31130;SDS011;20292;50.944;4.034;2022-11-30T09:53:47;65.25;;;27.10;;
31130;SDS011;20292;50.944;4.034;2022-11-30T09:56:25;67.85;;;28.55;;
31130;SDS011;20292;50.944;4.034;2022-11-30T09:59:05;75.68;;;29.08;;
31130;SDS011;20292;50.944;4.034;2022-11-30T10:01:39;71.70;;;28.95;;
31130;SDS011;20292;50.944;4.034;2022-11-30T10:04:05;73.78;;;28.92;;
31130;SDS011;20292;50.944;4.034;2022-11-30T10:06:45;69.88;;;27.45;;
31130;SDS011;20292;50.944;4.034;2022-11-30T10:12:32;79.47;;;32.08;;
31130;SDS011;20292;50.944;4.034;2022-11-30T10:20:26;70.13;;;30.52;;
31130;SDS011;20292;50.944;4.034;2022-11-30T10:25:56;71.55;;;29.48;;
31130;SDS011;20292;50.944;4.034;2022-11-30T10:31:18;65.50;;;29.02;;
31130;SDS011;20292;50.944;4.034;2022-11-30T10:33:50;82.38;;;29.45;;
31130;SDS011;20292;50.944;4.034;2022-11-30T10:38:44;72.45;;;31.48;;
31130;SDS011;20292;50.944;4.034;2022-11-30T10:41:36;78.20;;;31.02;;
31130;SDS011;20292;50.944;4.034;2022-11-30T10:46:37;85.28;;;31.73;;
31130;SDS011;20292;50.944;4.034;2022-11-30T10:49:11;81.90;;;29.98;;
31130;SDS011;20292;50.944;4.034;2022-11-30T10:51:40;76.15;;;31.13;;
31130;SDS011;20292;50.944;4.034;2022-11-30T10:54:16;78.78;;;30.95;;
31130;SDS011;20292;50.944;4.034;2022-11-30T10:56:44;69.90;;;29.52;;
31130;SDS011;20292;50.944;4.034;2022-11-30T10:59:18;77.22;;;30.75;;
31130;SDS011;20292;50.944;4.034;2022-11-30T11:01:48;73.38;;;28.83;;
31130;SDS011;20292;50.944;4.034;2022-11-30T11:04:15;74.70;;;31.10;;
31130;SDS011;20292;50.944;4.034;2022-11-30T11:06:50;64.10;;;28.27;;
31130;SDS011;20292;50.944;4.034;2022-11-30T11:12:05;72.78;;;28.98;;
31130;SDS011;20292;50.944;4.034;2022-11-30T11:14:45;71.93;;;29.80;;
31130;SDS011;20292;50.944;4.034;2022-11-30T11:19:42;75.07;;;28.42;;
31130;SDS011;20292;50.944;4.034;2022-11-30T11:22:16;85.18;;;35.47;;
31130;SDS011;20292;50.944;4.034;2022-11-30T11:24:45;80.07;;;31.60;;
31130;SDS011;20292;50.944;4.034;2022-11-30T11:29:57;72.43;;;29.58;;
31130;SDS011;20292;50.944;4.034;2022-11-30T11:32:25;79.05;;;31.30;;
31130;SDS011;20292;50.944;4.034;2022-11-30T11:34:51;77.53;;;30.35;;
31130;SDS011;20292;50.944;4.034;2022-11-30T11:37:22;66.15;;;29.70;;
31130;SDS011;20292;50.944;4.034;2022-11-30T11:39:59;61.67;;;28.20;;
31130;SDS011;20292;50.944;4.034;2022-11-30T11:42:30;68.15;;;28.45;;
31130;SDS011;20292;50.944;4.034;2022-11-30T11:44:59;75.97;;;30.55;;
31130;SDS011;20292;50.944;4.034;2022-11-30T11:47:28;61.65;;;29.38;;
31130;SDS011;20292;50.944;4.034;2022-11-30T11:50:06;71.63;;;29.98;;
31130;SDS011;20292;50.944;4.034;2022-11-30T11:52:46;68.60;;;29.60;;
31130;SDS011;20292;50.944;4.034;2022-11-30T11:55:14;78.60;;;30.42;;
31130;SDS011;20292;50.944;4.034;2022-11-30T11:57:46;68.60;;;29.65;;
31130;SDS011;20292;50.944;4.034;2022-11-30T12:00:17;77.05;;;30.25;;
31130;SDS011;20292;50.944;4.034;2022-11-30T12:05:28;68.70;;;29.45;;
31130;SDS011;20292;50.944;4.034;2022-11-30T12:10:57;63.50;;;29.17;;
31130;SDS011;20292;50.944;4.034;2022-11-30T12:13:30;62.35;;;27.88;;
31130;SDS011;20292;50.944;4.034;2022-11-30T12:19:14;66.53;;;27.67;;
31130;SDS011;20292;50.944;4.034;2022-11-30T12:29:24;58.58;;;27.98;;
31130;SDS011;20292;50.944;4.034;2022-11-30T12:32:01;64.65;;;28.98;;
31130;SDS011;20292;50.944;4.034;2022-11-30T12:40:34;63.17;;;28.40;;
31130;SDS011;20292;50.944;4.034;2022-11-30T12:43:11;59.80;;;27.70;;
31130;SDS011;20292;50.944;4.034;2022-11-30T12:45:53;61.35;;;28.88;;
31130;SDS011;20292;50.944;4.034;2022-11-30T12:48:43;62.35;;;27.05;;
31130;SDS011;20292;50.944;4.034;2022-11-30T12:51:39;65.15;;;28.88;;
31130;SDS011;20292;50.944;4.034;2022-11-30T12:54:13;61.65;;;27.80;;
31130;SDS011;20292;50.944;4.034;2022-11-30T12:56:51;63.88;;;29.38;;
31130;SDS011;20292;50.944;4.034;2022-11-30T13:08:25;64.15;;;29.42;;
31130;SDS011;20292;50.944;4.034;2022-11-30T13:11:02;65.50;;;28.92;;
31130;SDS011;20292;50.944;4.034;2022-11-30T13:13:32;58.35;;;28.08;;
31130;SDS011;20292;50.944;4.034;2022-11-30T13:16:02;58.42;;;26.88;;
31130;SDS011;20292;50.944;4.034;2022-11-30T13:18:29;54.20;;;27.38;;
31130;SDS011;20292;50.944;4.034;2022-11-30T13:26:39;62.38;;;27.65;;
31130;SDS011;20292;50.944;4.034;2022-11-30T13:29:21;59.67;;;27.85;;
31130;SDS011;20292;50.944;4.034;2022-11-30T13:32:08;61.83;;;28.23;;
31130;SDS011;20292;50.944;4.034;2022-11-30T13:34:36;61.88;;;29.23;;
31130;SDS011;20292;50.944;4.034;2022-11-30T13:37:06;63.47;;;29.55;;
31130;SDS011;20292;50.944;4.034;2022-11-30T13:44:39;66.30;;;30.65;;
31130;SDS011;20292;50.944;4.034;2022-11-30T13:47:49;69.45;;;30.77;;
31130;SDS011;20292;50.944;4.034;2022-11-30T13:50:07;63.85;;;30.55;;
31130;SDS011;20292;50.944;4.034;2022-11-30T13:53:40;66.88;;;30.05;;
31130;SDS011;20292;50.944;4.034;2022-11-30T13:58:14;69.07;;;31.55;;
31130;SDS011;20292;50.944;4.034;2022-11-30T14:00:42;66.15;;;30.98;;
31130;SDS011;20292;50.944;4.034;2022-11-30T14:10:51;73.93;;;34.47;;
31130;SDS011;20292;50.944;4.034;2022-11-30T14:18:18;71.72;;;33.72;;
31130;SDS011;20292;50.944;4.034;2022-11-30T14:26:13;68.80;;;34.40;;
31130;SDS011;20292;50.944;4.034;2022-11-30T14:31:18;68.88;;;33.95;;
31130;SDS011;20292;50.944;4.034;2022-11-30T14:33:50;73.22;;;33.90;;
31130;SDS011;20292;50.944;4.034;2022-11-30T14:36:17;72.40;;;33.45;;
31130;SDS011;20292;50.944;4.034;2022-11-30T14:38:44;74.68;;;34.53;;
31130;SDS011;20292;50.944;4.034;2022-11-30T14:41:25;66.60;;;33.08;;
31130;SDS011;20292;50.944;4.034;2022-11-30T14:46:27;73.60;;;34.42;;
31130;SDS011;20292;50.944;4.034;2022-11-30T14:49:03;75.43;;;34.88;;
31130;SDS011;20292;50.944;4.034;2022-11-30T14:51:29;69.85;;;34.33;;
31130;SDS011;20292;50.944;4.034;2022-11-30T14:53:58;74.40;;;35.90;;
31130;SDS011;20292;50.944;4.034;2022-11-30T14:56:47;70.07;;;34.75;;
31130;SDS011;20292;50.944;4.034;2022-11-30T15:02:02;72.35;;;34.72;;
31130;SDS011;20292;50.944;4.034;2022-11-30T15:04:35;71.35;;;32.70;;
31130;SDS011;20292;50.944;4.034;2022-11-30T15:07:01;66.53;;;33.25;;
31130;SDS011;20292;50.944;4.034;2022-11-30T15:09:28;68.70;;;33.50;;
31130;SDS011;20292;50.944;4.034;2022-11-30T15:11:55;65.63;;;32.45;;
31130;SDS011;20292;50.944;4.034;2022-11-30T15:14:21;65.32;;;32.92;;
31130;SDS011;20292;50.944;4.034;2022-11-30T15:16:52;68.35;;;31.75;;
31130;SDS011;20292;50.944;4.034;2022-11-30T15:19:26;61.38;;;31.23;;
31130;SDS011;20292;50.944;4.034;2022-11-30T15:21:54;62.55;;;30.73;;
31130;SDS011;20292;50.944;4.034;2022-11-30T15:24:20;66.55;;;33.33;;
31130;SDS011;20292;50.944;4.034;2022-11-30T15:31:49;67.63;;;32.35;;
31130;SDS011;20292;50.944;4.034;2022-11-30T15:34:21;66.85;;;33.38;;
31130;SDS011;20292;50.944;4.034;2022-11-30T15:37:08;68.65;;;31.60;;
31130;SDS011;20292;50.944;4.034;2022-11-30T15:39:34;68.43;;;32.92;;
31130;SDS011;20292;50.944;4.034;2022-11-30T15:42:02;73.50;;;33.55;;
31130;SDS011;20292;50.944;4.034;2022-11-30T15:47:00;69.07;;;33.30;;
31130;SDS011;20292;50.944;4.034;2022-11-30T15:49:30;69.97;;;32.33;;
31130;SDS011;20292;50.944;4.034;2022-11-30T15:52:12;67.55;;;33.15;;
31130;SDS011;20292;50.944;4.034;2022-11-30T15:57:19;74.60;;;33.95;;
31130;SDS011;20292;50.944;4.034;2022-11-30T16:00:03;73.75;;;34.03;;
31130;SDS011;20292;50.944;4.034;2022-11-30T16:02:43;67.95;;;34.55;;
31130;SDS011;20292;50.944;4.034;2022-11-30T16:07:38;73.50;;;34.65;;
31130;SDS011;20292;50.944;4.034;2022-11-30T16:10:15;67.63;;;32.83;;
31130;SDS011;20292;50.944;4.034;2022-11-30T16:12:44;77.75;;;34.38;;
31130;SDS011;20292;50.944;4.034;2022-11-30T16:15:24;73.38;;;34.45;;
31130;SDS011;20292;50.944;4.034;2022-11-30T16:17:52;69.70;;;33.03;;
31130;SDS011;20292;50.944;4.034;2022-11-30T16:20:24;70.95;;;34.85;;
31130;SDS011;20292;50.944;4.034;2022-11-30T16:22:50;72.95;;;33.78;;
31130;SDS011;20292;50.944;4.034;2022-11-30T16:25:21;77.65;;;36.05;;
31130;SDS011;20292;50.944;4.034;2022-11-30T16:27:48;83.60;;;37.53;;
31130;SDS011;20292;50.944;4.034;2022-11-30T16:30:15;77.30;;;36.13;;
31130;SDS011;20292;50.944;4.034;2022-11-30T16:32:42;76.03;;;36.25;;
31130;SDS011;20292;50.944;4.034;2022-11-30T16:35:21;71.22;;;35.60;;
31130;SDS011;20292;50.944;4.034;2022-11-30T16:37:49;72.03;;;35.50;;
31130;SDS011;20292;50.944;4.034;2022-11-30T16:40:15;77.55;;;36.03;;
31130;SDS011;20292;50.944;4.034;2022-11-30T16:42:41;76.20;;;37.00;;